Time;durP1;ratioP1;P1;durP2;ratioP2;P2;SDS_P1;SDS_P2;PMS_P1;PMS_P2;Temp;Humidity;BMP_temperature;BMP_pressure;BME280_temperature;BME280_humidity;BME280_pressure;Samples;Min_cycle;Max_cycle;Signal;HPM_P1;HPM_P2
2022/06/20 00:01:21;;;;;;;0.00;0.00;;;13.00;99.90;;;;;;4897029;29;20076;-84
2022/06/20 00:03:48;;;;;;;0.32;0.32;;;13.00;99.90;;;;;;4896841;29;20096;-84
2022/06/20 00:06:16;;;;;;;0.35;0.35;;;13.00;99.90;;;;;;4881364;29;20036;-84
2022/06/20 00:08:43;;;;;;;0.03;0.03;;;13.00;99.90;;;;;;4896762;29;20045;-84
2022/06/20 00:11:36;;;;;;;0.00;0.00;;;12.90;99.90;;;;;;4881293;29;20096;-84
2022/06/20 00:14:02;;;;;;;0.00;0.00;;;13.00;99.90;;;;;;4868610;29;20373;-83
2022/06/20 00:16:32;;;;;;;0.20;0.10;;;13.00;99.90;;;;;;4878120;29;20071;-81
2022/06/20 00:18:58;;;;;;;0.00;0.00;;;13.00;99.90;;;;;;4878063;29;20048;-81
2022/06/20 00:21:24;;;;;;;0.00;0.00;;;13.00;99.90;;;;;;4878050;29;20088;-81
2022/06/20 00:23:50;;;;;;;0.10;0.10;;;13.00;99.90;;;;;;4862758;29;20073;-81
2022/06/20 00:26:17;;;;;;;1.00;0.25;;;13.10;99.90;;;;;;4862485;29;20064;-81
2022/06/20 00:28:43;;;;;;;0.00;0.00;;;13.00;99.90;;;;;;4877899;29;20480;-81
2022/06/20 00:31:10;;;;;;;0.10;0.10;;;12.90;99.90;;;;;;4891904;29;20043;-81
2022/06/20 00:33:36;;;;;;;0.00;0.00;;;12.90;99.90;;;;;;4896948;29;20554;-80
2022/06/20 00:36:02;;;;;;;0.00;0.00;;;12.90;99.90;;;;;;4881223;29;20044;-80
2022/06/20 00:38:28;;;;;;;0.00;0.00;;;12.90;99.90;;;;;;4881039;29;20096;-80
2022/06/20 00:40:58;;;;;;;0.00;0.00;;;12.80;99.90;;;;;;4881205;29;20079;-81
2022/06/20 00:43:30;;;;;;;0.00;0.00;;;12.80;99.90;;;;;;4896432;29;20470;-81
2022/06/20 00:45:58;;;;;;;0.00;0.00;;;12.80;99.90;;;;;;4881379;29;20047;-81
2022/06/20 00:48:47;;;;;;;0.00;0.00;;;12.70;99.90;;;;;;4896460;29;20500;-81
2022/06/20 00:51:30;;;;;;;0.20;0.20;;;12.70;99.90;;;;;;4896533;29;20491;-84
2022/06/20 00:54:16;;;;;;;0.00;0.00;;;12.50;99.90;;;;;;4880943;29;20512;-84
2022/06/20 00:56:50;;;;;;;0.05;0.05;;;12.50;99.90;;;;;;4896493;29;20108;-84
2022/06/20 00:59:33;;;;;;;0.00;0.00;;;12.40;99.90;;;;;;4880599;29;20088;-84
2022/06/20 01:02:00;;;;;;;0.10;0.10;;;12.20;99.90;;;;;;4896717;29;20453;-84
2022/06/20 01:04:36;;;;;;;0.00;0.00;;;;;;;;;;4896395;29;20097;-84
2022/06/20 01:07:07;;;;;;;0.13;0.13;;;12.00;99.90;;;;;;4897572;29;20067;-81
2022/06/20 01:09:36;;;;;;;0.52;0.30;;;11.90;99.90;;;;;;4899757;29;20053;-81
2022/06/20 01:12:03;;;;;;;0.00;0.00;;;11.90;99.90;;;;;;4899630;29;20051;-81
2022/06/20 01:14:39;;;;;;;0.00;0.00;;;11.50;99.90;;;;;;4899630;29;20051;-81
2022/06/20 01:17:19;;;;;;;0.10;0.10;;;11.50;99.90;;;;;;4899734;29;20052;-81
2022/06/20 01:19:45;;;;;;;0.00;0.00;;;11.40;99.90;;;;;;4899773;29;20044;-81
2022/06/20 01:22:43;;;;;;;0.00;0.00;;;11.20;99.90;;;;;;4899506;29;20123;-81
2022/06/20 01:25:26;;;;;;;0.00;0.00;;;11.20;99.90;;;;;;4852403;29;20127;-81
2022/06/20 01:27:52;;;;;;;0.00;0.00;;;11.10;99.90;;;;;;4883881;29;20090;-81
2022/06/20 01:30:26;;;;;;;0.00;0.00;;;11.00;99.90;;;;;;4899408;29;20078;-81
2022/06/20 01:32:51;;;;;;;0.00;0.00;;;10.90;99.90;;;;;;4883977;29;20115;-81
2022/06/20 01:38:07;;;;;;;0.05;0.05;;;10.90;99.90;;;;;;4886052;29;20078;-81
2022/06/20 01:40:34;;;;;;;0.00;0.00;;;10.90;99.90;;;;;;4899326;29;20033;-85
2022/06/20 01:43:00;;;;;;;0.40;0.40;;;11.00;99.90;;;;;;4883791;29;20432;-86
2022/06/20 01:48:17;;;;;;;0.00;0.00;;;11.20;99.90;;;;;;4899169;29;20049;-85
2022/06/20 01:50:45;;;;;;;0.00;0.00;;;11.40;99.90;;;;;;4898667;29;20140;-85
2022/06/20 01:53:14;;;;;;;0.00;0.00;;;11.50;99.90;;;;;;4883526;29;20507;-85
2022/06/20 01:55:42;;;;;;;0.00;0.00;;;11.60;99.90;;;;;;4899146;29;20071;-85
2022/06/20 01:58:14;;;;;;;0.00;0.00;;;11.90;99.90;;;;;;4897900;29;20045;-84
2022/06/20 02:00:40;;;;;;;0.00;0.00;;;11.90;99.90;;;;;;4899044;29;20052;-85
2022/06/20 02:03:14;;;;;;;0.00;0.00;;;12.00;99.90;;;;;;4883507;29;20040;-84
2022/06/20 02:05:44;;;;;;;0.00;0.00;;;12.00;99.90;;;;;;4883199;29;20040;-84
2022/06/20 02:08:10;;;;;;;0.10;0.10;;;12.10;99.90;;;;;;4883318;29;20048;-84
2022/06/20 02:10:42;;;;;;;0.17;0.17;;;12.20;99.90;;;;;;4868581;29;20548;-84
2022/06/20 02:13:10;;;;;;;0.10;0.10;;;12.20;99.90;;;;;;4883091;29;20033;-84
2022/06/20 02:15:37;;;;;;;0.13;0.13;;;12.20;99.90;;;;;;4879844;29;20049;-84
2022/06/20 02:18:07;;;;;;;0.00;0.00;;;12.20;99.90;;;;;;4848339;29;20052;-84
2022/06/20 02:20:44;;;;;;;0.57;0.47;;;12.20;99.90;;;;;;4848666;29;20480;-84
2022/06/20 02:23:10;;;;;;;0.00;0.00;;;12.20;99.90;;;;;;4879737;29;20081;-84
2022/06/20 02:25:36;;;;;;;0.10;0.10;;;12.10;99.90;;;;;;4881115;29;20055;-84
2022/06/20 02:28:09;;;;;;;0.00;0.00;;;12.00;99.90;;;;;;4867296;29;20563;-84
2022/06/20 02:30:37;;;;;;;0.00;0.00;;;11.80;99.90;;;;;;4883045;29;20056;-86
2022/06/20 02:33:11;;;;;;;0.00;0.00;;;11.70;99.90;;;;;;4898167;29;20127;-85
2022/06/20 02:35:39;;;;;;;0.00;0.00;;;11.50;99.90;;;;;;4882705;29;20051;-85
2022/06/20 02:38:05;;;;;;;0.10;0.10;;;11.30;99.90;;;;;;4867202;29;20036;-86
2022/06/20 02:40:31;;;;;;;0.00;0.00;;;11.10;99.90;;;;;;4882631;29;20044;-85
2022/06/20 02:43:05;;;;;;;0.10;0.10;;;10.90;99.90;;;;;;4898013;29;20041;-85
2022/06/20 02:45:33;;;;;;;0.10;0.10;;;10.90;99.90;;;;;;4898048;29;20051;-85
2022/06/20 02:48:05;;;;;;;0.00;0.00;;;10.80;99.90;;;;;;4898341;29;20091;-85
2022/06/20 02:50:36;;;;;;;0.00;0.00;;;10.80;99.90;;;;;;4898209;29;20071;-85
2022/06/20 02:53:23;;;;;;;0.00;0.00;;;10.70;99.90;;;;;;4898076;29;20048;-85
2022/06/20 02:55:51;;;;;;;0.10;0.10;;;10.70;99.90;;;;;;4882265;29;20048;-85
2022/06/20 02:58:28;;;;;;;0.10;0.10;;;10.70;99.90;;;;;;4896676;29;20520;-85
2022/06/20 03:01:18;;;;;;;0.08;0.08;;;10.60;99.90;;;;;;4882231;29;20392;-85
2022/06/20 03:03:47;;;;;;;0.00;0.00;;;10.40;99.90;;;;;;4897691;29;20099;-84
2022/06/20 03:06:24;;;;;;;0.00;0.00;;;10.30;99.90;;;;;;4897724;29;20052;-84
2022/06/20 03:08:50;;;;;;;;;;;10.10;99.90;;;;;;4898097;29;20046;-84
2022/06/20 03:11:16;;;;;;;0.10;0.10;;;10.00;99.90;;;;;;4881960;29;19923;-84
2022/06/20 03:13:46;;;;;;;0.10;0.10;;;10.00;99.90;;;;;;4897457;29;20045;-84
2022/06/20 03:16:14;;;;;;;0.00;0.00;;;9.90;99.90;;;;;;4897884;29;20116;-84
2022/06/20 03:18:44;;;;;;;0.10;0.10;;;9.90;99.90;;;;;;4881789;29;20052;-84
2022/06/20 03:21:12;;;;;;;0.00;0.00;;;9.80;99.90;;;;;;4881989;29;20453;-80
2022/06/20 03:23:38;;;;;;;0.00;0.00;;;9.90;99.90;;;;;;4881802;29;20091;-80
2022/06/20 03:26:09;;;;;;;0.10;0.10;;;9.70;99.90;;;;;;4881825;29;20484;-80
2022/06/20 03:28:35;;;;;;;0.00;0.00;;;9.60;99.90;;;;;;4897220;29;20179;-80
2022/06/20 03:31:01;;;;;;;0.00;0.00;;;9.60;99.90;;;;;;4896987;29;20083;-81
2022/06/20 03:33:28;;;;;;;0.00;0.00;;;9.70;99.90;;;;;;4881693;29;20047;-81
2022/06/20 03:35:59;;;;;;;0.00;0.00;;;10.50;99.90;;;;;;4897204;29;20085;-84
2022/06/20 03:38:25;;;;;;;0.00;0.00;;;9.50;99.90;;;;;;4897108;29;20044;-84
2022/06/20 03:40:51;;;;;;;0.00;0.00;;;9.40;99.90;;;;;;4897116;29;20041;-84
2022/06/20 03:43:23;;;;;;;0.00;0.00;;;9.40;99.90;;;;;;4897410;29;20032;-84
2022/06/20 03:46:01;;;;;;;0.00;0.00;;;9.40;99.90;;;;;;4897111;29;20108;-84
2022/06/20 03:48:38;;;;;;;0.00;0.00;;;9.30;99.90;;;;;;4881482;29;20047;-84
2022/06/20 03:51:11;;;;;;;0.10;0.10;;;9.40;99.90;;;;;;4897067;29;20044;-84
2022/06/20 03:53:46;;;;;;;0.20;0.20;;;9.30;99.90;;;;;;4897039;29;20079;-84
2022/06/20 03:56:25;;;;;;;0.10;0.10;;;9.40;99.90;;;;;;4881698;29;20407;-83
2022/06/20 03:59:16;;;;;;;0.30;0.20;;;9.40;99.90;;;;;;4881019;29;20057;-84
2022/06/20 04:01:59;;;;;;;0.00;0.00;;;9.40;99.90;;;;;;4881632;29;20151;-84
2022/06/20 04:04:40;;;;;;;0.00;0.00;;;9.50;99.90;;;;;;4897257;29;20435;-84
2022/06/20 04:07:17;;;;;;;0.00;0.00;;;9.60;99.90;;;;;;4896876;29;20056;-84
2022/06/20 04:12:52;;;;;;;0.20;0.20;;;9.70;99.90;;;;;;4896687;29;20076;-84
2022/06/20 04:15:23;;;;;;;0.20;0.20;;;9.80;99.90;;;;;;4897064;29;20107;-84
2022/06/20 04:18:44;;;;;;;0.00;0.00;;;9.90;99.90;;;;;;4896754;29;20037;-84
2022/06/20 04:21:28;;;;;;;0.10;0.10;;;10.00;99.90;;;;;;4877095;29;20044;-84
2022/06/20 04:24:21;;;;;;;0.10;0.10;;;10.00;99.90;;;;;;4878014;29;20052;-84
2022/06/20 04:27:02;;;;;;;0.00;0.00;;;10.10;99.90;;;;;;4893025;29;20053;-84
2022/06/20 04:29:39;;;;;;;0.45;0.40;;;10.90;99.90;;;;;;4878200;29;20183;-84
2022/06/20 04:32:47;;;;;;;0.00;0.00;;;10.20;99.90;;;;;;4878064;29;20045;-84
2022/06/20 04:35:24;;;;;;;0.77;0.30;;;10.20;99.90;;;;;;4893094;29;20053;-84
2022/06/20 04:37:56;;;;;;;0.10;0.10;;;10.20;99.90;;;;;;4882856;29;20051;-84
2022/06/20 04:40:32;;;;;;;0.00;0.00;;;10.30;99.90;;;;;;4881250;29;20048;-84
2022/06/20 04:43:21;;;;;;;0.00;0.00;;;10.40;99.90;;;;;;4899203;29;20037;-84
2022/06/20 04:45:52;;;;;;;0.00;0.00;;;10.40;99.90;;;;;;4900156;29;20137;-84
2022/06/20 04:48:20;;;;;;;0.00;0.00;;;10.60;99.90;;;;;;4900088;29;20078;-84
2022/06/20 04:50:50;;;;;;;4.03;0.50;;;11.00;99.90;;;;;;4900018;29;20076;-84
2022/06/20 04:53:20;;;;;;;0.20;0.20;;;11.00;99.90;;;;;;4884471;29;20107;-84
2022/06/20 04:55:53;;;;;;;0.00;0.00;;;11.10;99.90;;;;;;4900228;29;20081;-84
2022/06/20 04:58:31;;;;;;;0.32;0.32;;;11.30;99.90;;;;;;4899967;29;20057;-84
2022/06/20 05:00:57;;;;;;;0.00;0.00;;;11.50;99.90;;;;;;4884568;29;20040;-84
2022/06/20 05:03:28;;;;;;;0.20;0.20;;;11.60;99.90;;;;;;4884286;29;20040;-84
2022/06/20 05:05:56;;;;;;;0.00;0.00;;;11.80;99.90;;;;;;4884514;29;20053;-85
2022/06/20 05:08:34;;;;;;;0.03;0.03;;;12.00;99.90;;;;;;4900016;29;20076;-85
2022/06/20 05:11:25;;;;;;;0.10;0.10;;;12.20;99.90;;;;;;4884342;29;20071;-84
2022/06/20 05:14:13;;;;;;;0.40;0.30;;;12.30;99.90;;;;;;4899641;29;20096;-84
2022/06/20 05:16:48;;;;;;;0.13;0.13;;;12.50;99.90;;;;;;4899868;29;20041;-81
2022/06/20 05:19:22;;;;;;;0.32;0.30;;;13.20;99.90;;;;;;4899908;29;20052;-81
2022/06/20 05:21:53;;;;;;;0.52;0.52;;;12.90;99.90;;;;;;4899484;29;20137;-80
2022/06/20 05:24:25;;;;;;;0.30;0.30;;;13.10;99.90;;;;;;4895823;29;20088;-80
2022/06/20 05:26:52;;;;;;;0.20;0.20;;;13.30;99.90;;;;;;4880877;29;20049;-81
2022/06/20 05:29:27;;;;;;;0.35;0.32;;;14.70;99.90;;;;;;4899400;29;20048;-81
2022/06/20 05:31:55;;;;;;;0.00;0.00;;;14.70;99.90;;;;;;4899589;29;20048;-81
2022/06/20 05:34:44;;;;;;;1.55;0.30;;;17.10;99.90;;;;;;4899340;29;20121;-81
2022/06/20 05:37:36;;;;;;;0.10;0.08;;;17.20;99.90;;;;;;4899200;29;20048;-81
2022/06/20 05:40:21;;;;;;;0.15;0.08;;;18.40;99.90;;;;;;4883804;29;20048;-81
2022/06/20 05:42:46;;;;;;;0.52;0.52;;;19.70;99.90;;;;;;4899436;29;20076;-81
2022/06/20 05:45:18;;;;;;;0.00;0.00;;;20.10;99.90;;;;;;4899052;29;20485;-81
2022/06/20 05:47:52;;;;;;;0.20;0.20;;;20.70;99.90;;;;;;4899099;29;20488;-81
2022/06/20 05:50:28;;;;;;;0.00;0.00;;;21.20;99.90;;;;;;4899091;29;20066;-85
2022/06/20 05:52:54;;;;;;;0.38;0.25;;;21.70;99.90;;;;;;4898977;29;20045;-85
2022/06/20 05:55:25;;;;;;;0.05;0.05;;;22.20;99.90;;;;;;4883774;29;20400;-85
2022/06/20 05:57:55;;;;;;;0.43;0.43;;;22.50;99.90;;;;;;4899056;29;20052;-85
2022/06/20 06:00:33;;;;;;;0.10;0.10;;;22.80;97.10;;;;;;4883247;29;20064;-85
2022/06/20 06:03:09;;;;;;;0.10;0.10;;;22.70;97.50;;;;;;4898770;29;20048;-85
2022/06/20 06:05:48;;;;;;;0.10;0.10;;;23.10;96.20;;;;;;4899123;29;20369;-85
2022/06/20 06:08:39;;;;;;;0.65;0.65;;;23.40;94.80;;;;;;4898728;29;20603;-85
2022/06/20 06:11:23;;;;;;;0.13;0.13;;;24.00;95.90;;;;;;4898960;29;20056;-84
2022/06/20 06:14:03;;;;;;;0.52;0.52;;;24.30;93.40;;;;;;4879973;29;20076;-85
2022/06/20 06:16:48;;;;;;;0.00;0.00;;;24.30;94.30;;;;;;4864774;29;20049;-85
2022/06/20 06:19:41;;;;;;;0.00;0.00;;;24.50;91.80;;;;;;4896339;29;20048;-85
2022/06/20 06:22:26;;;;;;;0.50;0.45;;;24.40;91.20;;;;;;4898550;29;20044;-85
2022/06/20 06:25:15;;;;;;;3.33;0.70;;;24.10;90.20;;;;;;4882931;29;20044;-86
2022/06/20 06:27:42;;;;;;;0.20;0.13;;;24.10;90.70;;;;;;4882779;29;20514;-86
2022/06/20 06:30:18;;;;;;;0.32;0.32;;;24.20;90.90;;;;;;4883096;29;20499;-86
2022/06/20 06:33:09;;;;;;;5.10;0.80;;;24.40;90.10;;;;;;4882781;29;20044;-86
2022/06/20 06:35:44;;;;;;;0.30;0.30;;;24.60;89.20;;;;;;4875921;29;20056;-85
2022/06/20 06:38:18;;;;;;;0.40;0.40;;;25.10;90.30;;;;;;4882613;29;20127;-86
2022/06/20 06:40:50;;;;;;;0.17;0.17;;;25.70;87.80;;;;;;4897961;29;20047;-82
2022/06/20 06:43:26;;;;;;;0.10;0.10;;;26.00;85.70;;;;;;4898115;29;20045;-82
2022/06/20 06:46:01;;;;;;;3.97;0.17;;;25.70;85.50;;;;;;4882979;29;20051;-82
2022/06/20 06:49:02;;;;;;;0.10;0.10;;;25.70;85.80;;;;;;4898071;29;20048;-81
2022/06/20 06:51:50;;;;;;;0.45;0.45;;;25.70;82.60;;;;;;4883510;29;20109;-81
2022/06/20 06:54:25;;;;;;;0.55;0.55;;;24.50;83.60;;;;;;4917108;29;20048;-82
2022/06/20 06:56:59;;;;;;;0.20;0.17;;;24.60;85.20;;;;;;4916747;29;20056;-85
2022/06/20 06:59:35;;;;;;;0.10;0.10;;;25.30;87.70;;;;;;4916650;29;20058;-85
2022/06/20 07:02:03;;;;;;;0.17;0.17;;;26.00;82.80;;;;;;4916948;29;20048;-85
2022/06/20 07:05:01;;;;;;;0.20;0.20;;;26.70;82.50;;;;;;4916585;29;20079;-85
2022/06/20 07:07:37;;;;;;;0.10;0.10;;;27.40;81.40;;;;;;4904898;29;20045;-85
2022/06/20 07:10:03;;;;;;;1.35;1.05;;;28.30;82.20;;;;;;4897622;29;20059;-85
2022/06/20 07:12:30;;;;;;;0.20;0.20;;;28.60;76.30;;;;;;4897811;29;20049;-82
2022/06/20 07:15:17;;;;;;;0.05;0.05;;;28.20;77.80;;;;;;4897575;29;20518;-81
2022/06/20 07:17:49;;;;;;;0.55;0.52;;;26.90;75.70;;;;;;4897358;29;20123;-82
2022/06/20 07:20:17;;;;;;;0.45;0.20;;;26.60;78.30;;;;;;4897729;29;20080;-81
2022/06/20 07:22:45;;;;;;;0.10;0.10;;;26.00;78.50;;;;;;4897330;29;20040;-81
2022/06/20 07:25:35;;;;;;;1.08;0.30;;;25.00;78.60;;;;;;4878705;29;20044;-81
2022/06/20 07:28:06;;;;;;;0.20;0.20;;;25.00;83.50;;;;;;4878989;29;20045;-82
2022/06/20 07:30:39;;;;;;;0.00;0.00;;;26.10;81.10;;;;;;4863114;29;20044;-85
2022/06/20 07:33:14;;;;;;;0.35;0.35;;;26.90;79.90;;;;;;4878720;29;20381;-85
2022/06/20 07:35:47;;;;;;;0.38;0.25;;;26.40;77.80;;;;;;4878607;29;20550;-85
2022/06/20 07:38:25;;;;;;;0.32;0.32;;;25.70;77.30;;;;;;4878785;29;20045;-85
2022/06/20 07:41:02;;;;;;;0.10;0.10;;;24.10;78.40;;;;;;4878763;29;20041;-85
2022/06/20 07:43:37;;;;;;;0.00;0.00;;;22.90;82.20;;;;;;4878781;29;20080;-85
2022/06/20 07:46:18;;;;;;;0.15;0.15;;;23.00;85.00;;;;;;4878556;29;20123;-84
2022/06/20 07:48:46;;;;;;;0.10;0.10;;;24.40;82.00;;;;;;4878323;29;20052;-84
2022/06/20 07:51:23;;;;;;;0.00;0.00;;;26.10;80.20;;;;;;4878351;29;20048;-84
2022/06/20 07:54:22;;;;;;;0.00;0.00;;;27.30;77.60;;;;;;4878364;29;20053;-85
2022/06/20 07:56:52;;;;;;;0.30;0.30;;;28.50;75.60;;;;;;4882127;29;20503;-84
2022/06/20 07:59:35;;;;;;;0.00;0.00;;;29.00;72.20;;;;;;4897154;29;20056;-85
2022/06/20 08:02:25;;;;;;;0.03;0.03;;;28.80;71.70;;;;;;4897214;29;20059;-85
2022/06/20 08:04:56;;;;;;;0.08;0.08;;;28.10;71.80;;;;;;4881370;29;20044;-81
2022/06/20 08:07:55;;;;;;;0.22;0.20;;;26.60;71.00;;;;;;4897256;29;20493;-81
2022/06/20 08:10:33;;;;;;;0.00;0.00;;;25.70;72.80;;;;;;4868514;29;20063;-81
2022/06/20 08:13:13;;;;;;;0.05;0.05;;;25.40;74.00;;;;;;4896786;29;20554;-81
2022/06/20 08:15:44;;;;;;;0.10;0.10;;;25.00;75.70;;;;;;4897716;29;20049;-81
2022/06/20 08:18:10;;;;;;;0.00;0.00;;;25.30;76.30;;;;;;4900785;29;20053;-81
2022/06/20 08:20:42;;;;;;;0.20;0.20;;;26.50;75.10;;;;;;4900539;29;20044;-84
2022/06/20 08:23:14;;;;;;;0.00;0.00;;;27.60;71.50;;;;;;4900467;29;20045;-84
2022/06/20 08:25:46;;;;;;;0.30;0.30;;;28.70;72.20;;;;;;4897326;29;20052;-84
2022/06/20 08:28:19;;;;;;;0.10;0.10;;;29.60;70.00;;;;;;4881933;29;20049;-84
2022/06/20 08:30:54;;;;;;;0.00;0.00;;;30.70;72.00;;;;;;4881970;29;20045;-85
2022/06/20 08:33:22;;;;;;;0.13;0.13;;;30.90;68.30;;;;;;4881634;29;20049;-85
2022/06/20 08:35:52;;;;;;;0.40;0.40;;;30.30;69.90;;;;;;4881587;29;20073;-85
2022/06/20 08:38:29;;;;;;;0.10;0.10;;;29.00;67.30;;;;;;4881772;29;20049;-81
2022/06/20 08:41:06;;;;;;;0.10;0.10;;;28.00;68.50;;;;;;4881552;29;20124;-81
2022/06/20 08:43:38;;;;;;;0.10;0.10;;;28.00;69.70;;;;;;4881902;29;20112;-82
2022/06/20 08:46:04;;;;;;;0.00;0.00;;;28.60;69.40;;;;;;4866295;29;20365;-82
2022/06/20 08:49:07;;;;;;;0.10;0.10;;;27.90;69.30;;;;;;4898745;29;20127;-82
2022/06/20 08:52:12;;;;;;;0.00;0.00;;;26.60;68.60;;;;;;4884535;29;20084;-81
2022/06/20 08:55:17;;;;;;;0.00;0.00;;;23.70;72.30;;;;;;4884154;29;20056;-81
2022/06/20 08:57:54;;;;;;;0.05;0.05;;;22.90;74.70;;;;;;4884177;29;20044;-81
2022/06/20 09:00:39;;;;;;;0.15;0.15;;;21.60;78.80;;;;;;4884345;29;20056;-81
2022/06/20 09:03:28;;;;;;;0.60;0.52;;;21.10;80.10;;;;;;4900220;29;20436;-81
2022/06/20 09:06:12;;;;;;;0.00;0.00;;;22.10;81.60;;;;;;4900211;29;20047;-82
2022/06/20 09:09:10;;;;;;;0.10;0.10;;;24.30;79.60;;;;;;4884521;29;20100;-81
2022/06/20 09:12:13;;;;;;;0.10;0.10;;;26.20;77.00;;;;;;4884602;29;20076;-82
2022/06/20 09:15:03;;;;;;;0.38;0.38;;;25.30;73.30;;;;;;4892138;23;20057;-82
2022/06/20 09:17:34;;;;;;;0.22;0.22;;;24.20;74.80;;;;;;4880899;29;20052;-82
2022/06/20 09:20:18;;;;;;;0.00;0.00;;;25.40;76.30;;;;;;4880935;29;20488;-81
2022/06/20 09:22:50;;;;;;;0.20;0.20;;;26.90;74.70;;;;;;4880886;29;20052;-81
2022/06/20 09:25:15;;;;;;;0.00;0.00;;;28.20;72.40;;;;;;4880565;29;20049;-81
2022/06/20 09:27:57;;;;;;;0.47;0.32;;;28.60;68.70;;;;;;4880272;29;20106;-81
2022/06/20 09:30:53;;;;;;;0.00;0.00;;;28.70;69.40;;;;;;4880934;29;20457;-81
2022/06/20 09:33:51;;;;;;;0.17;0.17;;;29.80;69.00;;;;;;4880798;29;20045;-81
2022/06/20 09:36:29;;;;;;;0.00;0.00;;;30.10;67.00;;;;;;4844799;29;20056;-81
2022/06/20 09:38:58;;;;;;;0.00;0.00;;;29.00;67.10;;;;;;4880405;29;20064;-81
2022/06/20 09:41:44;;;;;;;0.85;0.52;;;29.40;68.80;;;;;;4880831;29;20049;-82
2022/06/20 09:44:47;;;;;;;0.00;0.00;;;30.00;67.20;;;;;;4880662;29;20041;-84
2022/06/20 09:47:50;;;;;;;0.20;0.15;;;30.10;67.20;;;;;;4864898;29;20097;-84
2022/06/20 09:50:46;;;;;;;0.40;0.40;;;30.30;66.70;;;;;;4880429;29;20508;-84
2022/06/20 09:53:32;;;;;;;0.13;0.10;;;31.00;66.40;;;;;;4880429;29;20055;-84
2022/06/20 09:56:26;;;;;;;0.00;0.00;;;31.00;64.70;;;;;;4880252;29;20510;-84
2022/06/20 09:59:31;;;;;;;0.00;0.00;;;30.50;65.20;;;;;;4879698;29;20063;-85
2022/06/20 10:02:12;;;;;;;0.22;0.22;;;30.80;65.20;;;;;;4880286;29;20049;-84
2022/06/20 10:04:57;;;;;;;0.35;0.35;;;30.20;65.60;;;;;;4880379;29;20041;-84
2022/06/20 10:07:42;;;;;;;0.10;0.10;;;29.60;66.10;;;;;;4880507;29;20412;-84
2022/06/20 10:10:12;;;;;;;0.00;0.00;;;30.40;66.10;;;;;;4880102;29;20041;-84
2022/06/20 10:12:55;;;;;;;0.30;0.30;;;30.50;64.00;;;;;;4882049;29;20041;-84
2022/06/20 10:15:41;;;;;;;0.52;0.52;;;28.70;64.90;;;;;;4898711;29;20547;-84
2022/06/20 10:18:37;;;;;;;0.10;0.10;;;26.90;67.60;;;;;;4898603;29;20452;-84
2022/06/20 10:21:32;;;;;;;0.25;0.25;;;25.20;69.00;;;;;;4882862;29;20040;-84
2022/06/20 10:24:10;;;;;;;0.40;0.40;;;23.40;72.50;;;;;;4893761;29;20041;-83
2022/06/20 10:27:17;;;;;;;0.10;0.10;;;24.00;74.30;;;;;;4879933;29;20049;-83
2022/06/20 10:30:13;;;;;;;0.20;0.20;;;23.60;74.50;;;;;;4854680;29;20061;-83
2022/06/20 10:33:17;;;;;;;0.00;0.00;;;22.90;75.30;;;;;;4879999;29;20111;-83
2022/06/20 10:36:04;;;;;;;0.10;0.10;;;24.00;76.00;;;;;;4842116;29;20492;-83
2022/06/20 10:38:51;;;;;;;1.48;0.93;;;24.30;74.10;;;;;;4863978;29;20045;-83
2022/06/20 10:41:36;;;;;;;0.20;0.20;;;24.00;73.30;;;;;;4863511;29;20048;-83
2022/06/20 10:44:32;;;;;;;0.08;0.08;;;23.60;74.70;;;;;;4879624;29;20446;-83
2022/06/20 10:47:30;;;;;;;0.28;0.15;;;25.00;74.10;;;;;;4879415;29;20095;-83
2022/06/20 10:50:10;;;;;;;0.00;0.00;;;26.20;71.00;;;;;;4863872;29;20049;-84
2022/06/20 10:53:05;;;;;;;2.85;0.20;;;26.10;69.90;;;;;;4864363;29;20454;-84
2022/06/20 10:55:43;;;;;;;0.00;0.00;;;25.20;70.70;;;;;;4879290;29;20052;-84
2022/06/20 10:58:14;;;;;;;0.00;0.00;;;24.40;72.30;;;;;;4879151;29;20056;-83
2022/06/20 11:00:49;;;;;;;0.10;0.10;;;23.60;73.80;;;;;;4879473;29;20033;-83
2022/06/20 11:03:48;;;;;;;0.10;0.10;;;22.90;74.80;;;;;;4879433;29;20104;-83
2022/06/20 11:06:35;;;;;;;0.43;0.28;;;22.20;77.00;;;;;;4863712;29;20076;-83
2022/06/20 11:09:35;;;;;;;0.10;0.10;;;21.70;79.00;;;;;;4863701;29;20392;-83
2022/06/20 11:12:13;;;;;;;1.38;1.02;;;21.50;78.20;;;;;;4879196;29;20045;-83
2022/06/20 11:14:54;;;;;;;0.10;0.10;;;23.50;78.70;;;;;;4896296;29;20116;-83
2022/06/20 11:17:38;;;;;;;0.00;0.00;;;24.50;75.80;;;;;;4885768;29;20057;-84
2022/06/20 11:20:21;;;;;;;0.43;0.43;;;24.50;74.20;;;;;;4878693;29;20132;-83
2022/06/20 11:23:06;;;;;;;0.52;0.52;;;24.90;73.80;;;;;;4878797;29;20045;-82
2022/06/20 11:26:03;;;;;;;0.65;0.32;;;25.90;71.90;;;;;;4863019;29;20044;-82
2022/06/20 11:28:47;;;;;;;0.00;0.00;;;27.00;70.10;;;;;;4878652;29;20051;-82
2022/06/20 11:31:29;;;;;;;0.00;0.00;;;27.00;69.10;;;;;;4878962;29;20051;-82
2022/06/20 11:34:31;;;;;;;0.30;0.25;;;26.30;69.90;;;;;;4878490;29;20056;-82
2022/06/20 11:37:26;;;;;;;0.08;0.08;;;25.00;71.70;;;;;;4862838;29;20132;-82
2022/06/20 11:40:19;;;;;;;0.00;0.00;;;24.30;74.30;;;;;;4878527;29;20086;-84
2022/06/20 11:42:58;;;;;;;0.00;0.00;;;23.50;76.80;;;;;;4863118;29;20036;-84
2022/06/20 11:45:46;;;;;;;0.20;0.10;;;23.00;76.00;;;;;;4878234;29;20041;-83
2022/06/20 11:48:24;;;;;;;0.10;0.10;;;22.40;76.30;;;;;;4863092;29;20044;-84
2022/06/20 11:50:57;;;;;;;0.10;0.10;;;22.20;77.60;;;;;;4862769;29;20044;-84
2022/06/20 11:53:37;;;;;;;0.20;0.20;;;22.30;77.40;;;;;;4862939;29;20045;-84
2022/06/20 11:56:33;;;;;;;0.10;0.10;;;23.10;78.50;;;;;;4863028;29;20127;-81
2022/06/20 11:59:07;;;;;;;;;;;23.50;77.00;;;;;;4878515;29;20108;-82
2022/06/20 12:01:43;;;;;;;0.28;0.20;;;23.30;75.30;;;;;;4878492;29;19946;-82
2022/06/20 12:04:36;;;;;;;0.00;0.00;;;22.80;77.00;;;;;;4878272;29;20097;-82
2022/06/20 12:07:31;;;;;;;0.00;0.00;;;22.00;77.50;;;;;;4878037;29;20404;-82
2022/06/20 12:10:13;;;;;;;0.17;0.15;;;22.00;79.40;;;;;;4876151;29;20053;-82
2022/06/20 12:12:46;;;;;;;0.10;0.10;;;22.80;78.80;;;;;;4880907;29;20128;-83
2022/06/20 12:15:36;;;;;;;0.00;0.00;;;23.00;77.60;;;;;;4881290;29;20068;-83
2022/06/20 12:18:33;;;;;;;0.05;0.05;;;22.60;78.30;;;;;;4881083;29;20052;-83
2022/06/20 12:23:57;;;;;;;0.10;0.10;;;23.00;79.10;;;;;;4894185;29;19938;-84
2022/06/20 12:26:31;;;;;;;0.10;0.10;;;23.30;76.70;;;;;;4862732;29;20136;-84
2022/06/20 12:29:01;;;;;;;0.00;0.00;;;22.80;75.80;;;;;;4878214;29;20103;-84
2022/06/20 12:31:39;;;;;;;0.22;0.22;;;22.50;76.50;;;;;;4878054;29;20041;-82
2022/06/20 12:34:27;;;;;;;0.10;0.10;;;23.20;77.70;;;;;;4862378;29;20492;-82
2022/06/20 12:37:11;;;;;;;0.35;0.35;;;23.50;75.90;;;;;;4878189;29;20053;-82
2022/06/20 12:40:10;;;;;;;0.10;0.10;;;23.10;75.30;;;;;;4877891;29;20049;-81
2022/06/20 12:42:49;;;;;;;0.00;0.00;;;22.70;76.00;;;;;;4870998;29;20500;-82
2022/06/20 12:45:34;;;;;;;0.15;0.13;;;22.40;77.30;;;;;;4862355;29;20506;-81
2022/06/20 12:48:00;;;;;;;0.00;0.00;;;23.00;75.40;;;;;;4878307;29;20041;-81
2022/06/20 12:50:59;;;;;;;0.00;0.00;;;24.10;74.70;;;;;;4862398;29;20041;-81
2022/06/20 12:54:02;;;;;;;0.15;0.15;;;24.90;73.80;;;;;;4877900;29;20086;-81
2022/06/20 12:56:37;;;;;;;0.17;0.10;;;25.60;73.80;;;;;;4877708;29;20521;-81
2022/06/20 12:59:21;;;;;;;0.00;0.00;;;25.40;70.90;;;;;;4878004;29;20185;-81
2022/06/20 13:02:12;;;;;;;0.00;0.00;;;24.80;71.60;;;;;;4862442;29;20493;-81
2022/06/20 13:05:20;;;;;;;0.10;0.10;;;24.60;73.00;;;;;;4881074;29;20049;-81
2022/06/20 13:08:00;;;;;;;0.10;0.10;;;24.60;72.60;;;;;;4881096;29;20045;-81
2022/06/20 13:10:40;;;;;;;0.00;0.00;;;24.30;74.70;;;;;;4881041;29;20052;-81
2022/06/20 13:13:30;;;;;;;3.90;1.05;;;24.70;74.10;;;;;;4886441;29;20057;-81
2022/06/20 13:16:16;;;;;;;0.00;0.00;;;25.30;72.50;;;;;;4899652;29;20060;-81
2022/06/20 13:18:47;;;;;;;0.00;0.00;;;25.00;72.20;;;;;;4899592;29;20092;-81
2022/06/20 13:21:37;;;;;;;0.13;0.13;;;24.10;73.90;;;;;;4899695;29;20075;-81
2022/06/20 13:24:12;;;;;;;0.00;0.00;;;24.40;75.70;;;;;;4894597;29;20342;-81
2022/06/20 13:26:53;;;;;;;0.10;0.10;;;25.10;73.10;;;;;;4865333;29;20049;-81
2022/06/20 13:29:46;;;;;;;2.08;1.40;;;25.30;72.10;;;;;;4880695;29;20096;-81
2022/06/20 13:32:29;;;;;;;0.00;0.00;;;25.80;72.60;;;;;;4880961;29;20042;-81
2022/06/20 13:35:17;;;;;;;0.00;0.00;;;26.30;69.80;;;;;;4880639;29;20045;-81
2022/06/20 13:38:02;;;;;;;0.30;0.30;;;25.80;70.30;;;;;;4865472;29;20041;-82
2022/06/20 13:40:34;;;;;;;0.10;0.10;;;25.30;72.20;;;;;;4865427;29;20056;-82
2022/06/20 13:43:45;;;;;;;0.10;0.10;;;25.00;72.30;;;;;;4865554;29;20048;-82
2022/06/20 13:46:18;;;;;;;0.00;0.00;;;24.80;72.20;;;;;;4850949;29;20088;-82
2022/06/20 13:48:56;;;;;;;0.82;0.65;;;25.00;72.60;;;;;;4880453;29;20105;-82
2022/06/20 13:51:25;;;;;;;0.55;0.30;;;25.50;72.30;;;;;;4865138;29;20404;-82
2022/06/20 13:53:59;;;;;;;0.20;0.20;;;25.40;69.60;;;;;;4864948;29;20128;-83
2022/06/20 13:56:33;;;;;;;0.20;0.20;;;25.70;70.00;;;;;;4864860;29;20492;-82
2022/06/20 13:59:17;;;;;;;0.43;0.43;;;25.70;70.00;;;;;;4864702;29;20049;-82